KCLS/CLS METAR and TAF weather

Enter ICAO airport designator
Station Type Date Time Source
KCLS METAR 2019/02/21 00:15 UTC NOAA

KCLS 210015Z AUTO 02007G13KT 10SM OVC060 06/01 A2985 RMK AO2


Station Type Date Time Source
KCLS Decoded METAR 2019/02/21 00:15 UTC NOAA

Station name not available
Feb 20, 2019 - 07:15 PM EST / 2019.02.21 0015 UTC
Wind: from the NNE (020 degrees) at 8 MPH (7 KT) gusting to 15 MPH (13 KT):0
Visibility: 10 mile(s):0
Sky conditions: overcast
Temperature: 42 F (6 C)
Dew Point: 33 F (1 C)
Relative Humidity: 70%
Pressure (altimeter): 29.85 in. Hg (1010 hPa)
ob: KCLS 210015Z AUTO 02007G13KT 10SM OVC060 06/01 A2985 RMK AO2
cycle: 0

Station Type Date Time Source
KCLS TAF UTC NOAA

Error!


Example: see airport list